createdAt,value
2023-03-06T00:00:34.513Z,85.86
2023-03-06T00:03:05.033Z,86.26
2023-03-06T00:05:33.662Z,86.62
2023-03-06T00:08:02.403Z,87.08
2023-03-06T00:10:33.084Z,88.07
2023-03-06T00:13:03.602Z,88.01
2023-03-06T00:15:32.379Z,88.51
2023-03-06T00:18:01.190Z,88.35
2023-03-06T00:20:31.407Z,88.08
2023-03-06T00:23:00.464Z,88.62
2023-03-06T00:25:28.866Z,88.77
2023-03-06T00:27:57.806Z,89.06
2023-03-06T00:30:26.564Z,89.02
2023-03-06T00:32:55.209Z,89.02
2023-03-06T00:35:23.800Z,89.20
2023-03-06T00:37:53.579Z,88.94
2023-03-06T00:40:22.900Z,89.26
2023-03-06T00:42:51.316Z,89.24
2023-03-06T00:45:19.937Z,89.83
2023-03-06T00:47:48.610Z,90.20
2023-03-06T00:50:17.405Z,90.14
2023-03-06T00:52:46.004Z,90.47
2023-03-06T00:55:15.791Z,90.06
2023-03-06T00:57:48.252Z,89.37
2023-03-06T01:00:20.705Z,89.23
2023-03-06T01:02:49.071Z,88.81
2023-03-06T01:05:17.730Z,88.44
2023-03-06T01:07:46.700Z,87.89
2023-03-06T01:10:16.411Z,87.51
2023-03-06T01:12:46.106Z,87.46
2023-03-06T01:15:14.999Z,87.69
2023-03-06T01:17:43.479Z,87.92
2023-03-06T01:20:14.388Z,87.30
2023-03-06T01:22:42.817Z,87.50
2023-03-06T01:25:12.222Z,87.85
2023-03-06T01:27:42.002Z,87.14
2023-03-06T01:30:11.792Z,87.68
2023-03-06T01:32:40.364Z,88.16
2023-03-06T01:35:09.502Z,87.78
2023-03-06T01:37:38.939Z,87.88
2023-03-06T01:40:08.966Z,88.00
2023-03-06T01:42:37.432Z,88.10
2023-03-06T01:45:29.573Z,88.14
2023-03-06T01:47:58.212Z,88.34
2023-03-06T01:50:26.891Z,87.63
2023-03-06T01:52:58.915Z,87.61
2023-03-06T01:55:32.203Z,87.29
2023-03-06T01:58:04.885Z,87.73
2023-03-06T02:00:34.931Z,87.96
2023-03-06T02:03:07.763Z,87.76
2023-03-06T02:05:37.471Z,86.93
2023-03-06T02:08:07.692Z,87.04
2023-03-06T02:10:36.129Z,87.33
2023-03-06T02:13:05.230Z,86.73
2023-03-06T02:15:35.370Z,87.03
2023-03-06T02:18:03.959Z,87.23
2023-03-06T02:20:37.927Z,87.66
2023-03-06T02:23:12.430Z,88.04
2023-03-06T02:25:45.916Z,88.58
2023-03-06T02:28:17.181Z,88.02
2023-03-06T02:30:47.628Z,88.47
2023-03-06T02:33:17.808Z,88.74
2023-03-06T02:35:50.756Z,88.17
2023-03-06T02:38:22.837Z,88.34
2023-03-06T02:40:54.023Z,88.46
2023-03-06T02:43:26.325Z,88.31
2023-03-06T02:45:55.391Z,89.21
2023-03-06T02:48:24.172Z,89.01
2023-03-06T02:50:52.676Z,88.61
2023-03-06T02:53:21.926Z,88.89
2023-03-06T02:55:52.449Z,88.55
2023-03-06T02:58:20.898Z,88.81
2023-03-06T03:00:50.323Z,88.50
2023-03-06T03:03:19.374Z,88.84
2023-03-06T03:05:47.925Z,88.66
2023-03-06T03:08:16.465Z,89.01
2023-03-06T03:10:45.114Z,88.89
2023-03-06T03:13:14.966Z,88.80
2023-03-06T03:15:43.419Z,89.19
2023-03-06T03:18:12.027Z,89.25
2023-03-06T03:20:43.734Z,89.14
2023-03-06T03:23:12.228Z,89.07
2023-03-06T03:25:40.702Z,88.82
2023-03-06T03:28:09.073Z,88.77
2023-03-06T03:30:39.745Z,89.43
2023-03-06T03:33:09.039Z,89.16
2023-03-06T03:35:37.825Z,89.12
2023-03-06T03:38:06.403Z,88.08
2023-03-06T03:40:34.865Z,88.63
2023-03-06T03:43:03.426Z,88.28
2023-03-06T03:45:31.830Z,88.49
2023-03-06T03:48:01.595Z,89.08
2023-03-06T03:50:29.953Z,88.39
2023-03-06T03:52:58.697Z,87.96
2023-03-06T03:55:27.499Z,88.47
2023-03-06T03:57:56.111Z,88.66
2023-03-06T04:00:24.783Z,88.55
2023-03-06T04:02:53.151Z,88.54
2023-03-06T04:05:22.846Z,88.89
2023-03-06T04:07:51.219Z,88.64
2023-03-06T04:10:19.817Z,88.22
2023-03-06T04:12:48.270Z,88.92
2023-03-06T04:15:16.597Z,88.67
2023-03-06T04:17:45.011Z,89.12
2023-03-06T04:20:14.446Z,89.46
2023-03-06T04:22:44.363Z,89.43
2023-03-06T04:25:12.755Z,90.09
2023-03-06T04:27:41.456Z,90.07
2023-03-06T04:30:11.402Z,90.72
2023-03-06T04:32:39.766Z,90.35
2023-03-06T04:35:08.809Z,90.36
2023-03-06T04:37:37.236Z,89.88
2023-03-06T04:40:09.340Z,89.81
2023-03-06T04:42:37.974Z,89.69
2023-03-06T04:45:07.299Z,89.69
2023-03-06T04:47:35.698Z,90.37
2023-03-06T04:50:04.364Z,90.85
2023-03-06T04:52:33.157Z,90.52
2023-03-06T04:55:04.158Z,90.42
2023-03-06T04:57:34.011Z,90.47
2023-03-06T05:00:02.773Z,91.13
2023-03-06T05:02:31.368Z,91.08
2023-03-06T05:04:59.716Z,90.91
2023-03-06T05:07:28.065Z,90.86
2023-03-06T05:09:56.643Z,91.45
2023-03-06T05:12:24.971Z,91.17
2023-03-06T05:14:54.856Z,90.04
2023-03-06T05:17:23.371Z,89.17
2023-03-06T05:19:51.947Z,88.90
2023-03-06T05:22:20.462Z,89.29
2023-03-06T05:24:48.765Z,89.68
2023-03-06T05:27:17.170Z,88.59
2023-03-06T05:29:45.736Z,88.89
2023-03-06T05:32:17.163Z,89.19
2023-03-06T05:34:45.636Z,89.09
2023-03-06T05:37:13.958Z,89.07
2023-03-06T05:39:44.134Z,88.96
2023-03-06T05:42:12.712Z,89.25
2023-03-06T05:44:41.726Z,88.93
2023-03-06T05:47:11.848Z,88.92
2023-03-06T05:49:41.957Z,88.97
2023-03-06T05:52:12.901Z,88.36
2023-03-06T05:54:41.646Z,87.88
2023-03-06T05:57:10.014Z,88.20
2023-03-06T05:59:38.732Z,88.00
2023-03-06T06:02:07.129Z,88.25
2023-03-06T06:04:35.489Z,87.70
2023-03-06T06:07:06.056Z,87.70
2023-03-06T06:09:34.408Z,87.57
2023-03-06T06:12:04.142Z,88.54
2023-03-06T06:14:34.895Z,88.26
2023-03-06T06:17:03.539Z,88.61
2023-03-06T06:19:32.485Z,88.83
2023-03-06T06:22:02.799Z,88.35
2023-03-06T06:24:33.124Z,88.65
2023-03-06T06:27:03.865Z,88.30
2023-03-06T06:29:33.726Z,87.77
2023-03-06T06:32:03.108Z,87.72
2023-03-06T06:34:31.978Z,87.91
2023-03-06T06:37:00.376Z,87.85
2023-03-06T06:39:28.911Z,87.74
2023-03-06T06:42:15.471Z,88.47
2023-03-06T06:44:47.643Z,88.07
2023-03-06T06:47:25.374Z,88.21
2023-03-06T06:49:57.122Z,87.60
2023-03-06T06:52:26.715Z,87.75
2023-03-06T06:54:55.136Z,88.06
2023-03-06T06:57:27.403Z,87.60
2023-03-06T06:59:55.842Z,87.66
2023-03-06T07:02:24.451Z,87.74
2023-03-06T07:05:03.638Z,87.80
2023-03-06T07:07:35.275Z,86.75
2023-03-06T07:10:05.540Z,87.21
2023-03-06T07:12:35.515Z,86.47
2023-03-06T07:15:05.234Z,86.05
2023-03-06T07:17:34.127Z,85.72
2023-03-06T07:20:02.856Z,85.53
2023-03-06T07:22:41.442Z,85.17
2023-03-06T07:25:17.190Z,85.16
2023-03-06T07:27:53.255Z,85.17
2023-03-06T07:30:23.957Z,85.33
2023-03-06T07:32:56.256Z,85.04
2023-03-06T07:35:25.852Z,84.92
2023-03-06T07:37:54.896Z,84.74
2023-03-06T07:40:23.862Z,85.28
2023-03-06T07:43:09.215Z,85.90
2023-03-06T07:45:46.821Z,86.40
2023-03-06T07:48:15.344Z,86.89
2023-03-06T07:50:43.844Z,87.50
2023-03-06T07:53:12.233Z,86.99
2023-03-06T07:55:41.406Z,87.57
2023-03-06T07:58:11.353Z,87.07
2023-03-06T08:00:39.840Z,87.83
2023-03-06T08:03:09.639Z,87.48
2023-03-06T08:05:38.118Z,86.86
2023-03-06T08:08:06.591Z,87.07
2023-03-06T08:10:35.429Z,86.72
2023-03-06T08:13:03.880Z,86.25
2023-03-06T08:15:33.624Z,86.29
2023-03-06T08:18:02.118Z,86.05
2023-03-06T08:20:30.437Z,86.18
2023-03-06T08:22:59.015Z,85.83
2023-03-06T08:25:27.405Z,86.56
2023-03-06T08:27:55.809Z,87.37
2023-03-06T08:30:24.446Z,87.34
2023-03-06T08:32:54.161Z,88.01
2023-03-06T08:35:22.796Z,88.16
2023-03-06T08:37:51.252Z,88.60
2023-03-06T08:40:20.072Z,89.47
2023-03-06T08:42:49.093Z,89.54
2023-03-06T08:45:17.918Z,90.15
2023-03-06T08:47:46.263Z,89.83
2023-03-06T08:50:16.007Z,90.31
2023-03-06T08:52:44.595Z,89.80
2023-03-06T08:55:15.043Z,89.74
2023-03-06T08:57:43.505Z,89.75
2023-03-06T09:00:14.064Z,88.97
2023-03-06T09:02:42.646Z,88.29
2023-03-06T09:05:11.532Z,88.21
2023-03-06T09:07:41.227Z,87.85
2023-03-06T09:10:15.020Z,87.57
2023-03-06T09:12:50.128Z,87.00
2023-03-06T09:15:20.990Z,86.00
2023-03-06T09:17:49.467Z,86.50
2023-03-06T09:20:18.321Z,86.56
2023-03-06T09:22:48.331Z,87.39
2023-03-06T09:25:20.374Z,86.42
2023-03-06T09:27:58.211Z,86.30
2023-03-06T09:30:30.652Z,86.81
2023-03-06T09:32:59.193Z,85.95
2023-03-06T09:35:27.577Z,85.33
2023-03-06T09:37:57.332Z,85.32
2023-03-06T09:40:39.506Z,85.66
2023-03-06T09:43:07.955Z,85.64
2023-03-06T09:45:38.022Z,85.32
2023-03-06T09:48:12.069Z,84.29
2023-03-06T09:50:45.505Z,82.75
2023-03-06T09:53:25.446Z,82.50
2023-03-06T09:56:00.699Z,82.09
2023-03-06T09:58:31.839Z,82.25
2023-03-06T10:01:03.037Z,82.04
2023-03-06T10:03:35.289Z,80.89
2023-03-06T10:06:11.228Z,80.83
2023-03-06T10:08:56.419Z,80.84
2023-03-06T10:11:28.839Z,81.35
2023-03-06T10:14:12.497Z,81.77
2023-03-06T10:16:41.304Z,81.60
2023-03-06T10:19:16.068Z,81.44
2023-03-06T10:21:52.245Z,81.06
2023-03-06T10:24:45.245Z,80.25
2023-03-06T10:27:24.156Z,79.97
2023-03-06T10:30:03.292Z,79.66
2023-03-06T10:32:48.819Z,80.54
2023-03-06T10:35:20.340Z,79.99
2023-03-06T10:37:49.414Z,79.86
2023-03-06T10:40:21.264Z,80.17
2023-03-06T10:42:58.717Z,79.71
2023-03-06T10:45:48.539Z,80.00
2023-03-06T10:48:21.272Z,78.49
2023-03-06T10:50:50.104Z,78.03
2023-03-06T10:53:25.702Z,77.14
2023-03-06T10:56:00.290Z,76.41
2023-03-06T10:58:30.175Z,76.46
2023-03-06T11:01:08.220Z,76.11
2023-03-06T11:03:37.900Z,75.53
2023-03-06T11:06:13.188Z,74.27
2023-03-06T11:08:44.574Z,73.48
2023-03-06T11:11:20.314Z,72.26
2023-03-06T11:13:58.805Z,71.43
2023-03-06T11:16:30.552Z,70.36
2023-03-06T11:19:01.237Z,69.37
2023-03-06T11:21:31.954Z,69.79
2023-03-06T11:24:06.524Z,69.00
2023-03-06T11:26:45.526Z,68.38
2023-03-06T11:29:31.543Z,67.66
2023-03-06T11:32:07.537Z,65.42
2023-03-06T11:34:42.860Z,63.26
2023-03-06T11:37:21.715Z,60.18
2023-03-06T11:39:59.409Z,61.25
2023-03-06T11:42:31.462Z,62.61
2023-03-06T11:45:10.127Z,62.64
2023-03-06T11:47:40.160Z,63.43
2023-03-06T11:50:18.584Z,57.04
2023-03-06T11:52:52.288Z,45.63
2023-03-06T11:55:33.690Z,39.03
2023-03-06T11:58:26.652Z,34.13
2023-03-06T12:01:04.121Z,36.04
2023-03-06T12:03:55.817Z,34.00
2023-03-06T12:06:34.584Z,38.95
2023-03-06T12:09:20.396Z,38.10
2023-03-06T12:12:02.155Z,40.56
2023-03-06T12:14:44.375Z,43.13
2023-03-06T12:17:22.413Z,44.64
2023-03-06T12:20:17.381Z,48.75
2023-03-06T12:23:02.408Z,50.49
2023-03-06T12:25:38.782Z,52.63
2023-03-06T12:28:34.373Z,53.75
2023-03-06T12:31:19.528Z,54.95
2023-03-06T12:33:58.406Z,56.92
2023-03-06T12:36:39.687Z,57.20
2023-03-06T12:39:17.335Z,57.57
2023-03-06T12:42:00.713Z,56.99
2023-03-06T12:44:51.520Z,56.76
2023-03-06T12:47:24.859Z,57.24
2023-03-06T12:49:57.373Z,58.04
2023-03-06T12:52:30.500Z,58.48
2023-03-06T12:55:01.460Z,58.78
2023-03-06T12:57:31.149Z,59.32
2023-03-06T12:59:59.507Z,59.05
2023-03-06T13:02:49.352Z,58.04
2023-03-06T13:05:30.612Z,57.10
2023-03-06T13:08:23.033Z,56.42
2023-03-06T13:11:16.144Z,53.99
2023-03-06T13:13:46.122Z,53.49
2023-03-06T13:16:25.504Z,52.41
2023-03-06T13:19:11.058Z,51.97
2023-03-06T13:22:18.021Z,51.69
2023-03-06T13:24:46.460Z,50.88
2023-03-06T13:27:59.994Z,51.24
2023-03-06T13:30:46.163Z,50.87
2023-03-06T13:33:53.110Z,51.42
2023-03-06T13:36:25.715Z,52.23
2023-03-06T13:39:02.491Z,53.32
2023-03-06T13:41:55.504Z,54.57
2023-03-06T13:44:51.038Z,54.46
2023-03-06T13:48:06.496Z,54.79
2023-03-06T13:50:36.192Z,54.26
2023-03-06T13:53:35.200Z,53.02
2023-03-06T13:56:24.957Z,52.43
2023-03-06T13:59:18.273Z,52.52
2023-03-06T14:01:58.340Z,51.21
2023-03-06T14:04:34.531Z,47.00
2023-03-06T14:07:10.908Z,45.08
2023-03-06T14:09:44.318Z,45.57
2023-03-06T14:12:23.578Z,45.88
2023-03-06T14:14:56.960Z,46.50
2023-03-06T14:17:30.308Z,47.01
2023-03-06T14:20:02.287Z,47.64
2023-03-06T14:22:31.418Z,46.54
2023-03-06T14:25:04.614Z,44.27
2023-03-06T14:27:40.827Z,43.45
2023-03-06T14:30:13.289Z,43.34
2023-03-06T14:32:43.931Z,44.02
2023-03-06T14:35:26.044Z,44.89
2023-03-06T14:37:57.861Z,44.99
2023-03-06T14:40:32.341Z,44.47
2023-03-06T14:43:21.639Z,44.19
2023-03-06T14:45:50.789Z,43.91
2023-03-06T14:48:20.853Z,42.13
2023-03-06T14:50:52.427Z,41.12
2023-03-06T14:53:25.176Z,39.41
2023-03-06T14:55:57.721Z,39.38
2023-03-06T14:58:31.568Z,38.17
2023-03-06T15:01:04.592Z,37.62
2023-03-06T15:03:43.764Z,38.42
2023-03-06T15:06:19.250Z,38.30
2023-03-06T15:08:52.130Z,39.07
2023-03-06T15:11:20.584Z,40.57
2023-03-06T15:14:02.674Z,40.29
2023-03-06T15:16:32.344Z,40.33
2023-03-06T15:19:03.858Z,40.45
2023-03-06T15:21:38.311Z,40.56
2023-03-06T15:24:31.992Z,41.27
2023-03-06T15:27:02.934Z,41.78
2023-03-06T15:29:32.018Z,41.28
2023-03-06T15:32:34.593Z,42.26
2023-03-06T15:35:37.863Z,43.39
2023-03-06T15:38:25.312Z,43.77
2023-03-06T15:40:57.864Z,44.04
2023-03-06T15:43:27.606Z,43.81
2023-03-06T15:46:00.603Z,43.86
2023-03-06T15:48:29.375Z,44.76
2023-03-06T15:50:59.109Z,45.36
2023-03-06T15:53:28.364Z,45.92
2023-03-06T15:55:59.798Z,46.17
2023-03-06T15:58:31.534Z,47.15
2023-03-06T16:01:00.163Z,47.05
2023-03-06T16:03:28.553Z,47.31
2023-03-06T16:05:57.156Z,47.27
2023-03-06T16:08:27.723Z,47.51
2023-03-06T16:10:56.127Z,48.14
2023-03-06T16:13:28.127Z,48.35
2023-03-06T16:15:57.120Z,55.08
2023-03-06T16:18:25.496Z,62.74
2023-03-06T16:20:53.917Z,65.49
2023-03-06T16:23:22.442Z,66.52
2023-03-06T16:25:52.159Z,68.18
2023-03-06T16:28:20.656Z,69.42
2023-03-06T16:30:49.121Z,70.16
2023-03-06T16:33:17.533Z,71.37
2023-03-06T16:35:47.167Z,71.35
2023-03-06T16:38:16.729Z,71.10
2023-03-06T16:40:45.099Z,70.83
2023-03-06T16:43:16.125Z,71.80
2023-03-06T16:45:47.400Z,71.89
2023-03-06T16:48:17.816Z,73.23
2023-03-06T16:50:46.453Z,73.45
2023-03-06T16:53:21.091Z,74.52
2023-03-06T16:55:49.627Z,74.84
2023-03-06T16:58:19.370Z,74.90
2023-03-06T17:00:48.266Z,75.31
2023-03-06T17:03:17.959Z,75.71
2023-03-06T17:05:46.333Z,76.21
2023-03-06T17:08:14.834Z,77.10
2023-03-06T17:10:43.196Z,78.58
2023-03-06T17:13:12.378Z,79.62
2023-03-06T17:15:42.174Z,79.94
2023-03-06T17:18:10.557Z,80.78
2023-03-06T17:20:39.038Z,81.35
2023-03-06T17:23:07.495Z,82.06
2023-03-06T17:25:35.861Z,82.78
2023-03-06T17:28:04.367Z,83.59
2023-03-06T17:30:33.023Z,84.10
2023-03-06T17:33:02.825Z,83.68
2023-03-06T17:35:31.345Z,84.01
2023-03-06T17:37:59.811Z,83.54
2023-03-06T17:40:29.587Z,84.45
2023-03-06T17:42:58.043Z,84.14
2023-03-06T17:45:28.906Z,84.42
2023-03-06T17:47:57.605Z,85.00
2023-03-06T17:50:27.381Z,85.54
2023-03-06T17:52:55.697Z,85.61
2023-03-06T17:55:24.311Z,85.86
2023-03-06T17:57:53.357Z,85.35
2023-03-06T18:00:23.815Z,85.77
2023-03-06T18:02:52.176Z,86.07
2023-03-06T18:05:21.745Z,86.17
2023-03-06T18:07:51.452Z,86.36
2023-03-06T18:10:20.165Z,86.64
2023-03-06T18:12:48.707Z,86.13
2023-03-06T18:15:17.594Z,86.86
2023-03-06T18:17:46.523Z,85.09
2023-03-06T18:20:14.997Z,84.76
2023-03-06T18:22:43.385Z,84.85
2023-03-06T18:25:13.186Z,85.09
2023-03-06T18:27:41.561Z,84.08
2023-03-06T18:30:11.218Z,84.15
2023-03-06T18:32:39.598Z,84.46
2023-03-06T18:35:09.395Z,85.06
2023-03-06T18:37:37.978Z,86.78
2023-03-06T18:40:07.651Z,87.23
2023-03-06T18:42:37.429Z,89.42
2023-03-06T18:45:07.294Z,90.61
2023-03-06T18:47:35.663Z,90.80
2023-03-06T18:50:04.533Z,91.71
2023-03-06T18:52:32.957Z,92.39
2023-03-06T18:55:01.774Z,93.07
2023-03-06T18:57:30.601Z,93.61
2023-03-06T19:00:00.389Z,93.41
2023-03-06T19:02:29.094Z,93.54
2023-03-06T19:04:57.616Z,94.28
2023-03-06T19:07:26.276Z,93.38
2023-03-06T19:09:55.071Z,93.83
2023-03-06T19:12:23.535Z,94.45
2023-03-06T19:14:51.967Z,93.93
2023-03-06T19:17:23.959Z,93.08
2023-03-06T19:19:54.922Z,92.86
2023-03-06T19:22:24.166Z,92.93
2023-03-06T19:24:52.604Z,91.81
2023-03-06T19:27:21.379Z,90.55
2023-03-06T19:29:49.865Z,89.53
2023-03-06T19:32:18.434Z,88.78
2023-03-06T19:34:50.775Z,87.30
2023-03-06T19:37:19.297Z,87.32
2023-03-06T19:39:49.143Z,85.91
2023-03-06T19:42:17.600Z,84.74
2023-03-06T19:44:47.153Z,84.71
2023-03-06T19:47:15.514Z,83.94
2023-03-06T19:49:43.923Z,83.23
2023-03-06T19:52:13.881Z,83.08
2023-03-06T19:54:42.446Z,81.82
2023-03-06T19:57:11.337Z,81.83
2023-03-06T19:59:40.040Z,81.94
2023-03-06T20:02:10.716Z,80.63
2023-03-06T20:04:39.383Z,81.09
2023-03-06T20:07:08.010Z,80.15
2023-03-06T20:09:38.018Z,80.54
2023-03-06T20:12:08.329Z,79.57
2023-03-06T20:14:37.224Z,79.14
2023-03-06T20:17:05.982Z,79.42
2023-03-06T20:19:35.184Z,79.55
2023-03-06T20:22:03.914Z,79.67
2023-03-06T20:24:32.584Z,79.18
2023-03-06T20:27:05.653Z,79.31
2023-03-06T20:29:35.666Z,78.74
2023-03-06T20:32:04.869Z,78.32
2023-03-06T20:34:35.712Z,78.14
2023-03-06T20:37:04.188Z,78.49
2023-03-06T20:39:35.673Z,78.27
2023-03-06T20:42:06.690Z,77.89
2023-03-06T20:44:36.399Z,77.37
2023-03-06T20:47:06.341Z,77.03
2023-03-06T20:49:34.847Z,76.95
2023-03-06T20:52:04.103Z,75.92
2023-03-06T20:54:34.162Z,75.77
2023-03-06T20:57:02.934Z,76.01
2023-03-06T20:59:34.459Z,75.91
2023-03-06T21:02:27.519Z,75.48
2023-03-06T21:05:01.005Z,75.29
2023-03-06T21:07:31.073Z,75.28
2023-03-06T21:09:59.824Z,75.52
2023-03-06T21:12:28.502Z,75.21
2023-03-06T21:14:59.188Z,75.50
2023-03-06T21:17:30.266Z,75.95
2023-03-06T21:19:58.963Z,75.25
2023-03-06T21:22:30.230Z,74.76
2023-03-06T21:24:59.646Z,74.89
2023-03-06T21:27:28.633Z,75.20
2023-03-06T21:29:58.466Z,75.65
2023-03-06T21:32:28.149Z,75.71
2023-03-06T21:34:56.905Z,75.56
2023-03-06T21:37:25.666Z,75.60
2023-03-06T21:39:54.367Z,76.14
2023-03-06T21:42:22.716Z,76.41
2023-03-06T21:44:51.349Z,77.14
2023-03-06T21:47:21.197Z,77.38
2023-03-06T21:49:49.857Z,77.63
2023-03-06T21:52:18.419Z,78.58
2023-03-06T21:54:49.724Z,80.17
2023-03-06T21:57:18.500Z,81.35
2023-03-06T21:59:46.878Z,81.82
2023-03-06T22:02:16.301Z,83.20
2023-03-06T22:04:50.921Z,83.52
2023-03-06T22:07:20.290Z,84.59
2023-03-06T22:09:48.911Z,85.01
2023-03-06T22:12:17.776Z,87.00
2023-03-06T22:14:46.198Z,88.41
2023-03-06T22:17:14.840Z,88.81
2023-03-06T22:19:43.806Z,90.01
2023-03-06T22:22:13.710Z,91.21
2023-03-06T22:24:42.056Z,92.69
2023-03-06T22:27:10.545Z,92.78
2023-03-06T22:29:39.049Z,93.67
2023-03-06T22:32:08.781Z,94.52
2023-03-06T22:34:37.568Z,94.72
2023-03-06T22:37:06.072Z,96.05
2023-03-06T22:39:35.804Z,96.28
2023-03-06T22:42:04.729Z,96.76
2023-03-06T22:44:33.315Z,97.04
2023-03-06T22:47:01.940Z,97.33
2023-03-06T22:49:30.293Z,97.72
2023-03-06T22:51:58.924Z,98.24
2023-03-06T22:54:27.466Z,98.26
2023-03-06T22:56:57.390Z,98.37
2023-03-06T22:59:25.756Z,99.02
2023-03-06T23:01:54.286Z,100.00
2023-03-06T23:04:22.848Z,100.00
2023-03-06T23:06:51.391Z,100.00
2023-03-06T23:09:22.456Z,100.00
2023-03-06T23:11:51.009Z,100.00
2023-03-06T23:14:20.984Z,100.00
2023-03-06T23:16:49.399Z,100.00
2023-03-06T23:19:18.704Z,100.00
2023-03-06T23:21:47.069Z,100.00
2023-03-06T23:24:16.932Z,100.00
2023-03-06T23:26:45.684Z,100.00
2023-03-06T23:29:14.336Z,100.00
2023-03-06T23:31:44.184Z,100.00
2023-03-06T23:34:12.630Z,100.00
2023-03-06T23:36:41.611Z,100.00
2023-03-06T23:39:10.036Z,100.00
2023-03-06T23:41:38.723Z,100.00
2023-03-06T23:44:07.269Z,100.00
2023-03-06T23:46:35.700Z,100.00
2023-03-06T23:49:06.178Z,100.00
2023-03-06T23:51:34.610Z,100.00
2023-03-06T23:54:03.327Z,100.00
2023-03-06T23:56:31.847Z,100.00
2023-03-06T23:59:00.468Z,100.00
